sensor_id;sensor_type;location;lat;lon;timestamp;pressure;altitude;pressure_sealevel;temperature;humidity
13422;BME280;6782;55.904;13.396;2023-03-03T00:00:48;101560.41;;;-1.00;100.00
13422;BME280;6782;55.904;13.396;2023-03-03T00:03:17;101587.94;;;-0.79;100.00
13422;BME280;6782;55.904;13.396;2023-03-03T00:05:46;101595.09;;;-0.72;100.00
13422;BME280;6782;55.904;13.396;2023-03-03T00:08:13;101607.00;;;-0.77;100.00
13422;BME280;6782;55.904;13.396;2023-03-03T00:10:40;101644.91;;;-0.79;100.00
13422;BME280;6782;55.904;13.396;2023-03-03T00:13:12;101667.88;;;-0.64;100.00
13422;BME280;6782;55.904;13.396;2023-03-03T00:15:41;101680.06;;;-0.38;100.00
13422;BME280;6782;55.904;13.396;2023-03-03T00:18:21;101677.81;;;-0.52;100.00
13422;BME280;6782;55.904;13.396;2023-03-03T00:20:55;101699.91;;;-0.38;100.00
13422;BME280;6782;55.904;13.396;2023-03-03T00:23:29;101708.09;;;-0.51;100.00
13422;BME280;6782;55.904;13.396;2023-03-03T00:25:57;101717.44;;;-0.55;100.00
13422;BME280;6782;55.904;13.396;2023-03-03T00:28:28;101717.59;;;-0.50;100.00
13422;BME280;6782;55.904;13.396;2023-03-03T00:30:57;101702.91;;;-0.51;100.00
13422;BME280;6782;55.904;13.396;2023-03-03T00:33:27;101703.69;;;-0.54;100.00
13422;BME280;6782;55.904;13.396;2023-03-03T00:36:09;101718.59;;;-0.71;100.00
13422;BME280;6782;55.904;13.396;2023-03-03T00:38:47;101724.94;;;-0.63;100.00
13422;BME280;6782;55.904;13.396;2023-03-03T00:41:19;101723.59;;;-0.75;100.00
13422;BME280;6782;55.904;13.396;2023-03-03T00:43:48;101731.66;;;-0.68;100.00
13422;BME280;6782;55.904;13.396;2023-03-03T00:46:17;101733.06;;;-0.76;100.00
13422;BME280;6782;55.904;13.396;2023-03-03T00:48:46;101747.72;;;-0.76;100.00
13422;BME280;6782;55.904;13.396;2023-03-03T00:51:25;101755.44;;;-0.78;100.00
13422;BME280;6782;55.904;13.396;2023-03-03T00:53:52;101737.41;;;-0.97;100.00
13422;BME280;6782;55.904;13.396;2023-03-03T00:56:20;101743.66;;;-1.14;100.00
13422;BME280;6782;55.904;13.396;2023-03-03T00:58:47;101755.28;;;-1.25;100.00
13422;BME280;6782;55.904;13.396;2023-03-03T01:01:15;101765.25;;;-1.13;100.00
13422;BME280;6782;55.904;13.396;2023-03-03T01:03:42;101773.19;;;-1.09;100.00
13422;BME280;6782;55.904;13.396;2023-03-03T01:06:09;101772.47;;;-1.05;100.00
13422;BME280;6782;55.904;13.396;2023-03-03T01:08:38;101768.94;;;-1.07;100.00
13422;BME280;6782;55.904;13.396;2023-03-03T01:11:08;101754.75;;;-1.16;100.00
13422;BME280;6782;55.904;13.396;2023-03-03T01:13:40;101766.69;;;-1.20;100.00
13422;BME280;6782;55.904;13.396;2023-03-03T01:16:08;101767.72;;;-1.16;100.00
13422;BME280;6782;55.904;13.396;2023-03-03T01:18:36;101767.41;;;-1.24;100.00
13422;BME280;6782;55.904;13.396;2023-03-03T01:21:04;101761.38;;;-1.23;100.00
13422;BME280;6782;55.904;13.396;2023-03-03T01:23:31;101765.13;;;-1.37;100.00
13422;BME280;6782;55.904;13.396;2023-03-03T01:26:01;101771.63;;;-1.26;100.00
13422;BME280;6782;55.904;13.396;2023-03-03T01:28:28;101778.09;;;-1.15;100.00
13422;BME280;6782;55.904;13.396;2023-03-03T01:30:59;101780.19;;;-1.06;100.00
13422;BME280;6782;55.904;13.396;2023-03-03T01:33:27;101769.66;;;-1.11;100.00
13422;BME280;6782;55.904;13.396;2023-03-03T01:35:54;101769.41;;;-1.17;100.00
13422;BME280;6782;55.904;13.396;2023-03-03T01:38:21;101765.03;;;-1.18;100.00
13422;BME280;6782;55.904;13.396;2023-03-03T01:40:51;101766.69;;;-1.20;100.00
13422;BME280;6782;55.904;13.396;2023-03-03T01:43:20;101776.59;;;-1.10;100.00
13422;BME280;6782;55.904;13.396;2023-03-03T01:49:10;101774.72;;;-1.14;100.00
13422;BME280;6782;55.904;13.396;2023-03-03T01:51:44;101782.81;;;-1.05;100.00
13422;BME280;6782;55.904;13.396;2023-03-03T01:54:17;101787.78;;;-1.11;100.00
13422;BME280;6782;55.904;13.396;2023-03-03T01:56:46;101779.75;;;-1.17;100.00
13422;BME280;6782;55.904;13.396;2023-03-03T01:59:17;101780.69;;;-1.15;100.00
13422;BME280;6782;55.904;13.396;2023-03-03T02:01:47;101776.38;;;-1.16;100.00
13422;BME280;6782;55.904;13.396;2023-03-03T02:04:14;101783.28;;;-1.15;100.00
13422;BME280;6782;55.904;13.396;2023-03-03T02:06:45;101779.00;;;-1.14;100.00
13422;BME280;6782;55.904;13.396;2023-03-03T02:09:19;101778.09;;;-1.15;100.00
13422;BME280;6782;55.904;13.396;2023-03-03T02:11:50;101787.81;;;-1.09;100.00
13422;BME280;6782;55.904;13.396;2023-03-03T02:14:20;101784.59;;;-1.04;100.00
13422;BME280;6782;55.904;13.396;2023-03-03T02:16:47;101788.13;;;-1.02;100.00
13422;BME280;6782;55.904;13.396;2023-03-03T02:19:22;101792.13;;;-1.10;100.00
13422;BME280;6782;55.904;13.396;2023-03-03T02:21:51;101791.13;;;-1.13;100.00
13422;BME280;6782;55.904;13.396;2023-03-03T02:24:23;101798.81;;;-1.15;100.00
13422;BME280;6782;55.904;13.396;2023-03-03T02:26:53;101797.31;;;-1.31;100.00
13422;BME280;6782;55.904;13.396;2023-03-03T02:29:21;101789.50;;;-1.32;100.00
13422;BME280;6782;55.904;13.396;2023-03-03T02:31:48;101793.28;;;-1.45;100.00
13422;BME280;6782;55.904;13.396;2023-03-03T02:34:15;101779.38;;;-1.67;100.00
13422;BME280;6782;55.904;13.396;2023-03-03T02:36:43;101800.16;;;-1.45;100.00
13422;BME280;6782;55.904;13.396;2023-03-03T02:39:14;101786.72;;;-1.57;100.00
13422;BME280;6782;55.904;13.396;2023-03-03T02:41:45;101784.44;;;-1.70;100.00
13422;BME280;6782;55.904;13.396;2023-03-03T02:44:18;101785.78;;;-1.78;100.00
13422;BME280;6782;55.904;13.396;2023-03-03T02:46:47;101791.63;;;-1.63;100.00
13422;BME280;6782;55.904;13.396;2023-03-03T02:49:18;101817.56;;;-1.41;100.00
13422;BME280;6782;55.904;13.396;2023-03-03T02:51:46;101836.97;;;-1.11;100.00
13422;BME280;6782;55.904;13.396;2023-03-03T02:54:18;101819.41;;;-1.59;100.00
13422;BME280;6782;55.904;13.396;2023-03-03T02:56:46;101838.59;;;-1.34;100.00
13422;BME280;6782;55.904;13.396;2023-03-03T02:59:13;101815.69;;;-1.64;100.00
13422;BME280;6782;55.904;13.396;2023-03-03T03:01:43;101823.34;;;-1.86;100.00
13422;BME280;6782;55.904;13.396;2023-03-03T03:04:12;101815.50;;;-2.09;100.00
13422;BME280;6782;55.904;13.396;2023-03-03T03:06:40;101814.22;;;-2.36;100.00
13422;BME280;6782;55.904;13.396;2023-03-03T03:09:08;101818.03;;;-2.28;100.00
13422;BME280;6782;55.904;13.396;2023-03-03T03:11:36;101835.47;;;-1.85;100.00
13422;BME280;6782;55.904;13.396;2023-03-03T03:14:05;101823.22;;;-2.28;100.00
13422;BME280;6782;55.904;13.396;2023-03-03T03:16:32;101830.03;;;-2.30;100.00
13422;BME280;6782;55.904;13.396;2023-03-03T03:19:02;101840.50;;;-2.27;100.00
13422;BME280;6782;55.904;13.396;2023-03-03T03:21:29;101829.97;;;-2.49;100.00
13422;BME280;6782;55.904;13.396;2023-03-03T03:23:57;101826.69;;;-2.64;100.00
13422;BME280;6782;55.904;13.396;2023-03-03T03:26:24;101829.94;;;-2.68;100.00
13422;BME280;6782;55.904;13.396;2023-03-03T03:28:51;101838.22;;;-2.75;100.00
13422;BME280;6782;55.904;13.396;2023-03-03T03:31:19;101836.59;;;-2.73;100.00
13422;BME280;6782;55.904;13.396;2023-03-03T03:33:46;101842.63;;;-2.55;100.00
13422;BME280;6782;55.904;13.396;2023-03-03T03:36:15;101836.44;;;-2.76;100.00
13422;BME280;6782;55.904;13.396;2023-03-03T03:38:42;101843.25;;;-2.78;100.00
13422;BME280;6782;55.904;13.396;2023-03-03T03:41:10;101849.28;;;-2.60;100.00
13422;BME280;6782;55.904;13.396;2023-03-03T03:43:38;101856.78;;;-2.47;100.00
13422;BME280;6782;55.904;13.396;2023-03-03T03:46:06;101849.13;;;-2.63;100.00
13422;BME280;6782;55.904;13.396;2023-03-03T03:48:34;101849.72;;;-2.86;100.00
13422;BME280;6782;55.904;13.396;2023-03-03T03:51:01;101853.41;;;-2.81;100.00
13422;BME280;6782;55.904;13.396;2023-03-03T03:53:30;101858.75;;;-2.59;100.00
13422;BME280;6782;55.904;13.396;2023-03-03T03:55:57;101862.72;;;-2.67;100.00
13422;BME280;6782;55.904;13.396;2023-03-03T03:58:24;101863.72;;;-2.64;100.00
13422;BME280;6782;55.904;13.396;2023-03-03T04:00:51;101858.72;;;-2.78;100.00
13422;BME280;6782;55.904;13.396;2023-03-03T04:03:27;101860.41;;;-2.61;100.00
13422;BME280;6782;55.904;13.396;2023-03-03T04:05:54;101864.75;;;-2.60;100.00
13422;BME280;6782;55.904;13.396;2023-03-03T04:08:21;101870.06;;;-2.57;100.00
13422;BME280;6782;55.904;13.396;2023-03-03T04:10:50;101875.97;;;-2.42;100.00
13422;BME280;6782;55.904;13.396;2023-03-03T04:13:18;101872.69;;;-2.38;100.00
13422;BME280;6782;55.904;13.396;2023-03-03T04:15:45;101879.09;;;-2.30;100.00
13422;BME280;6782;55.904;13.396;2023-03-03T04:18:13;101873.63;;;-2.36;100.00
13422;BME280;6782;55.904;13.396;2023-03-03T04:20:40;101872.25;;;-2.29;100.00
13422;BME280;6782;55.904;13.396;2023-03-03T04:23:07;101876.22;;;-2.36;100.00
13422;BME280;6782;55.904;13.396;2023-03-03T04:25:35;101874.81;;;-2.29;100.00
13422;BME280;6782;55.904;13.396;2023-03-03T04:28:03;101872.84;;;-2.35;100.00
13422;BME280;6782;55.904;13.396;2023-03-03T04:30:31;101868.78;;;-2.30;100.00
13422;BME280;6782;55.904;13.396;2023-03-03T04:32:58;101874.34;;;-2.21;100.00
13422;BME280;6782;55.904;13.396;2023-03-03T04:35:26;101867.53;;;-2.38;100.00
13422;BME280;6782;55.904;13.396;2023-03-03T04:37:53;101872.75;;;-2.19;100.00
13422;BME280;6782;55.904;13.396;2023-03-03T04:40:31;101871.75;;;-2.21;100.00
13422;BME280;6782;55.904;13.396;2023-03-03T04:42:58;101882.38;;;-2.15;100.00
13422;BME280;6782;55.904;13.396;2023-03-03T04:45:26;101881.69;;;-2.30;100.00
13422;BME280;6782;55.904;13.396;2023-03-03T04:47:53;101880.97;;;-2.45;100.00
13422;BME280;6782;55.904;13.396;2023-03-03T04:50:20;101895.00;;;-2.21;100.00
13422;BME280;6782;55.904;13.396;2023-03-03T04:52:48;101901.56;;;-2.10;100.00
13422;BME280;6782;55.904;13.396;2023-03-03T04:55:15;101900.06;;;-2.05;100.00
13422;BME280;6782;55.904;13.396;2023-03-03T04:57:42;101903.59;;;-2.03;100.00
13422;BME280;6782;55.904;13.396;2023-03-03T05:00:11;101894.09;;;-2.04;100.00
13422;BME280;6782;55.904;13.396;2023-03-03T05:02:40;101891.13;;;-1.94;100.00
13422;BME280;6782;55.904;13.396;2023-03-03T05:05:08;101895.59;;;-1.90;100.00
13422;BME280;6782;55.904;13.396;2023-03-03T05:07:36;101904.44;;;-1.84;100.00
13422;BME280;6782;55.904;13.396;2023-03-03T05:10:04;101894.59;;;-1.74;100.00
13422;BME280;6782;55.904;13.396;2023-03-03T05:12:31;101899.16;;;-1.68;100.00
13422;BME280;6782;55.904;13.396;2023-03-03T05:15:00;101896.69;;;-1.65;100.00
13422;BME280;6782;55.904;13.396;2023-03-03T05:17:27;101904.94;;;-1.55;100.00
13422;BME280;6782;55.904;13.396;2023-03-03T05:19:55;101907.91;;;-1.46;100.00
13422;BME280;6782;55.904;13.396;2023-03-03T05:22:23;101904.56;;;-1.43;100.00
13422;BME280;6782;55.904;13.396;2023-03-03T05:24:51;101907.34;;;-1.39;100.00
13422;BME280;6782;55.904;13.396;2023-03-03T05:27:18;101902.69;;;-1.47;100.00
13422;BME280;6782;55.904;13.396;2023-03-03T05:29:46;101901.03;;;-1.45;100.00
13422;BME280;6782;55.904;13.396;2023-03-03T05:32:13;101908.09;;;-1.41;100.00
13422;BME280;6782;55.904;13.396;2023-03-03T05:34:40;101894.22;;;-1.43;100.00
13422;BME280;6782;55.904;13.396;2023-03-03T05:37:09;101898.03;;;-1.35;100.00
13422;BME280;6782;55.904;13.396;2023-03-03T05:39:36;101905.13;;;-1.31;100.00
13422;BME280;6782;55.904;13.396;2023-03-03T05:42:04;101909.44;;;-1.11;100.00
13422;BME280;6782;55.904;13.396;2023-03-03T05:44:31;101907.66;;;-1.12;100.00
13422;BME280;6782;55.904;13.396;2023-03-03T05:46:58;101904.50;;;-1.05;100.00
13422;BME280;6782;55.904;13.396;2023-03-03T05:49:25;101897.56;;;-1.06;100.00
13422;BME280;6782;55.904;13.396;2023-03-03T05:51:53;101908.41;;;-0.94;100.00
13422;BME280;6782;55.904;13.396;2023-03-03T05:54:21;101910.06;;;-0.96;100.00
13422;BME280;6782;55.904;13.396;2023-03-03T05:56:49;101913.66;;;-0.72;100.00
13422;BME280;6782;55.904;13.396;2023-03-03T05:59:16;101921.31;;;-0.75;100.00
13422;BME280;6782;55.904;13.396;2023-03-03T06:01:44;101931.72;;;-0.52;100.00
13422;BME280;6782;55.904;13.396;2023-03-03T06:04:11;101929.56;;;-0.63;100.00
13422;BME280;6782;55.904;13.396;2023-03-03T06:06:39;101938.53;;;-0.54;100.00
13422;BME280;6782;55.904;13.396;2023-03-03T06:09:05;101948.44;;;-0.44;100.00
13422;BME280;6782;55.904;13.396;2023-03-03T06:11:34;101952.75;;;-0.45;100.00
13422;BME280;6782;55.904;13.396;2023-03-03T06:14:01;101950.72;;;-0.31;100.00
13422;BME280;6782;55.904;13.396;2023-03-03T06:16:29;101957.50;;;-0.33;100.00
13422;BME280;6782;55.904;13.396;2023-03-03T06:18:56;101951.97;;;-0.42;100.00
13422;BME280;6782;55.904;13.396;2023-03-03T06:21:23;101960.56;;;-0.43;100.00
13422;BME280;6782;55.904;13.396;2023-03-03T06:23:51;101958.06;;;-0.42;100.00
13422;BME280;6782;55.904;13.396;2023-03-03T06:26:18;101961.88;;;-0.32;100.00
13422;BME280;6782;55.904;13.396;2023-03-03T06:28:47;101980.28;;;-0.26;100.00
13422;BME280;6782;55.904;13.396;2023-03-03T06:31:18;101973.81;;;-0.15;100.00
13422;BME280;6782;55.904;13.396;2023-03-03T06:33:45;101987.34;;;-0.22;100.00
13422;BME280;6782;55.904;13.396;2023-03-03T06:36:12;101985.94;;;-0.14;100.00
13422;BME280;6782;55.904;13.396;2023-03-03T06:38:39;101999.97;;;-0.09;100.00
13422;BME280;6782;55.904;13.396;2023-03-03T06:41:07;101996.56;;;-0.08;100.00
13422;BME280;6782;55.904;13.396;2023-03-03T06:43:35;101993.00;;;-0.10;100.00
13422;BME280;6782;55.904;13.396;2023-03-03T06:46:22;101992.03;;;-0.14;100.00
13422;BME280;6782;55.904;13.396;2023-03-03T06:49:09;101994.31;;;0.01;100.00
13422;BME280;6782;55.904;13.396;2023-03-03T06:51:57;101993.94;;;0.13;100.00
13422;BME280;6782;55.904;13.396;2023-03-03T06:54:46;101996.44;;;0.11;100.00
13422;BME280;6782;55.904;13.396;2023-03-03T06:57:34;102000.94;;;0.15;100.00
13422;BME280;6782;55.904;13.396;2023-03-03T07:00:23;101994.53;;;0.28;100.00
13422;BME280;6782;55.904;13.396;2023-03-03T07:03:15;101992.34;;;0.38;100.00
13422;BME280;6782;55.904;13.396;2023-03-03T07:06:12;101998.50;;;0.42;100.00
13422;BME280;6782;55.904;13.396;2023-03-03T07:09:00;102010.59;;;0.41;100.00
13422;BME280;6782;55.904;13.396;2023-03-03T07:11:47;102008.47;;;0.53;100.00
13422;BME280;6782;55.904;13.396;2023-03-03T07:14:36;102018.69;;;0.73;100.00
13422;BME280;6782;55.904;13.396;2023-03-03T07:17:29;102018.56;;;0.70;100.00
13422;BME280;6782;55.904;13.396;2023-03-03T07:20:21;102029.84;;;0.94;100.00
13422;BME280;6782;55.904;13.396;2023-03-03T07:23:17;102035.38;;;1.03;100.00
13422;BME280;6782;55.904;13.396;2023-03-03T07:26:09;102029.03;;;0.95;100.00
13422;BME280;6782;55.904;13.396;2023-03-03T07:28:59;102032.84;;;0.81;100.00
13422;BME280;6782;55.904;13.396;2023-03-03T07:31:48;102028.03;;;0.91;100.00
13422;BME280;6782;55.904;13.396;2023-03-03T07:34:37;102031.66;;;1.20;100.00
13422;BME280;6782;55.904;13.396;2023-03-03T07:37:31;102037.50;;;1.38;100.00
13422;BME280;6782;55.904;13.396;2023-03-03T07:40:30;102040.41;;;1.47;100.00
13422;BME280;6782;55.904;13.396;2023-03-03T07:43:29;102032.81;;;1.53;100.00
13422;BME280;6782;55.904;13.396;2023-03-03T07:46:24;102032.09;;;1.57;100.00
13422;BME280;6782;55.904;13.396;2023-03-03T07:49:20;102035.81;;;1.65;100.00
13422;BME280;6782;55.904;13.396;2023-03-03T07:52:25;102030.94;;;1.74;100.00
13422;BME280;6782;55.904;13.396;2023-03-03T07:55:38;102029.44;;;1.82;100.00
13422;BME280;6782;55.904;13.396;2023-03-03T07:58:34;102025.56;;;1.95;100.00
13422;BME280;6782;55.904;13.396;2023-03-03T08:01:34;102026.63;;;2.02;100.00
13422;BME280;6782;55.904;13.396;2023-03-03T08:04:28;102022.53;;;2.10;100.00
13422;BME280;6782;55.904;13.396;2023-03-03T08:07:21;102017.31;;;1.81;100.00
13422;BME280;6782;55.904;13.396;2023-03-03T08:10:28;102019.63;;;2.01;100.00
13422;BME280;6782;55.904;13.396;2023-03-03T08:13:20;102025.41;;;2.19;100.00
13422;BME280;6782;55.904;13.396;2023-03-03T08:16:23;102017.34;;;2.38;100.00
13422;BME280;6782;55.904;13.396;2023-03-03T08:19:14;102019.38;;;2.48;100.00
13422;BME280;6782;55.904;13.396;2023-03-03T08:22:11;101993.81;;;2.07;100.00
13422;BME280;6782;55.904;13.396;2023-03-03T08:25:01;101995.50;;;2.05;100.00
13422;BME280;6782;55.904;13.396;2023-03-03T08:27:48;101986.78;;;2.03;100.00
13422;BME280;6782;55.904;13.396;2023-03-03T08:30:37;101990.56;;;2.14;100.00
13422;BME280;6782;55.904;13.396;2023-03-03T08:33:24;101983.41;;;2.07;100.00
13422;BME280;6782;55.904;13.396;2023-03-03T08:36:12;101988.50;;;2.04;100.00
13422;BME280;6782;55.904;13.396;2023-03-03T08:38:59;101971.63;;;2.18;100.00
13422;BME280;6782;55.904;13.396;2023-03-03T08:41:47;101980.44;;;2.23;100.00
13422;BME280;6782;55.904;13.396;2023-03-03T08:44:34;101983.50;;;2.38;100.00
13422;BME280;6782;55.904;13.396;2023-03-03T08:47:23;101975.03;;;2.17;100.00
13422;BME280;6782;55.904;13.396;2023-03-03T08:50:10;101980.72;;;2.32;100.00
13422;BME280;6782;55.904;13.396;2023-03-03T08:52:58;101969.94;;;2.20;100.00
13422;BME280;6782;55.904;13.396;2023-03-03T08:55:45;101974.59;;;2.30;100.00
13422;BME280;6782;55.904;13.396;2023-03-03T08:58:33;101964.84;;;2.23;100.00
13422;BME280;6782;55.904;13.396;2023-03-03T09:01:20;101965.72;;;2.23;100.00
13422;BME280;6782;55.904;13.396;2023-03-03T09:04:08;101977.50;;;2.40;100.00
13422;BME280;6782;55.904;13.396;2023-03-03T09:06:55;101974.53;;;2.58;100.00
13422;BME280;6782;55.904;13.396;2023-03-03T09:09:43;101980.16;;;2.72;100.00
13422;BME280;6782;55.904;13.396;2023-03-03T09:12:33;101972.16;;;2.66;100.00
13422;BME280;6782;55.904;13.396;2023-03-03T09:15:23;101975.06;;;2.76;100.00
13422;BME280;6782;55.904;13.396;2023-03-03T09:18:14;101972.44;;;2.75;100.00
13422;BME280;6782;55.904;13.396;2023-03-03T09:21:16;101978.00;;;2.88;100.00
13422;BME280;6782;55.904;13.396;2023-03-03T09:24:14;101986.16;;;3.00;100.00
13422;BME280;6782;55.904;13.396;2023-03-03T09:27:11;101966.56;;;3.14;100.00
13422;BME280;6782;55.904;13.396;2023-03-03T09:30:11;101962.84;;;3.05;100.00
13422;BME280;6782;55.904;13.396;2023-03-03T09:33:19;101981.16;;;3.41;100.00
13422;BME280;6782;55.904;13.396;2023-03-03T09:36:20;101984.44;;;3.68;100.00
13422;BME280;6782;55.904;13.396;2023-03-03T09:39:15;101979.28;;;3.71;100.00
13422;BME280;6782;55.904;13.396;2023-03-03T09:42:46;101975.97;;;3.78;100.00
13422;BME280;6782;55.904;13.396;2023-03-03T09:45:46;101963.56;;;3.68;100.00
13422;BME280;6782;55.904;13.396;2023-03-03T09:48:43;101957.69;;;3.76;100.00
13422;BME280;6782;55.904;13.396;2023-03-03T09:52:09;101954.81;;;3.66;100.00
13422;BME280;6782;55.904;13.396;2023-03-03T09:55:10;101952.75;;;3.89;100.00
13422;BME280;6782;55.904;13.396;2023-03-03T09:58:10;101955.22;;;3.83;100.00
13422;BME280;6782;55.904;13.396;2023-03-03T10:01:12;101937.34;;;3.62;100.00
13422;BME280;6782;55.904;13.396;2023-03-03T10:04:13;101945.47;;;3.75;100.00
13422;BME280;6782;55.904;13.396;2023-03-03T10:07:14;101932.41;;;3.74;100.00
13422;BME280;6782;55.904;13.396;2023-03-03T10:10:18;101921.41;;;3.87;100.00
13422;BME280;6782;55.904;13.396;2023-03-03T10:13:25;101937.50;;;4.07;100.00
13422;BME280;6782;55.904;13.396;2023-03-03T10:16:50;101937.97;;;4.28;100.00
13422;BME280;6782;55.904;13.396;2023-03-03T10:19:52;101930.16;;;4.29;100.00
13422;BME280;6782;55.904;13.396;2023-03-03T10:22:47;101931.03;;;4.28;100.00
13422;BME280;6782;55.904;13.396;2023-03-03T10:25:39;101925.16;;;4.38;100.00
13422;BME280;6782;55.904;13.396;2023-03-03T10:28:47;101918.06;;;4.34;100.00
13422;BME280;6782;55.904;13.396;2023-03-03T10:31:56;101907.56;;;4.31;100.00
13422;BME280;6782;55.904;13.396;2023-03-03T10:35:01;101913.28;;;4.56;100.00
13422;BME280;6782;55.904;13.396;2023-03-03T10:38:01;101903.31;;;4.80;100.00
13422;BME280;6782;55.904;13.396;2023-03-03T10:41:12;101891.66;;;4.63;100.00
13422;BME280;6782;55.904;13.396;2023-03-03T10:44:17;101884.09;;;4.78;100.00
13422;BME280;6782;55.904;13.396;2023-03-03T10:47:38;101875.28;;;4.73;100.00
13422;BME280;6782;55.904;13.396;2023-03-03T10:50:33;101868.25;;;4.69;100.00
13422;BME280;6782;55.904;13.396;2023-03-03T10:53:31;101870.25;;;4.82;100.00
13422;BME280;6782;55.904;13.396;2023-03-03T10:56:28;101851.78;;;4.73;100.00
13422;BME280;6782;55.904;13.396;2023-03-03T10:59:38;101847.69;;;4.87;100.00
13422;BME280;6782;55.904;13.396;2023-03-03T11:02:38;101829.88;;;4.65;100.00
13422;BME280;6782;55.904;13.396;2023-03-03T11:05:32;101831.47;;;4.57;100.00
13422;BME280;6782;55.904;13.396;2023-03-03T11:08:28;101823.44;;;4.46;100.00
13422;BME280;6782;55.904;13.396;2023-03-03T11:11:19;101818.06;;;4.38;100.00
13422;BME280;6782;55.904;13.396;2023-03-03T11:14:13;101802.41;;;4.40;100.00
13422;BME280;6782;55.904;13.396;2023-03-03T11:17:11;101810.66;;;4.63;100.00
13422;BME280;6782;55.904;13.396;2023-03-03T11:20:08;101798.47;;;4.62;100.00
13422;BME280;6782;55.904;13.396;2023-03-03T11:23:05;101796.88;;;4.70;100.00
13422;BME280;6782;55.904;13.396;2023-03-03T11:26:07;101791.91;;;4.85;100.00
13422;BME280;6782;55.904;13.396;2023-03-03T11:29:04;101784.75;;;4.75;100.00
13422;BME280;6782;55.904;13.396;2023-03-03T11:31:59;101769.81;;;4.66;100.00
13422;BME280;6782;55.904;13.396;2023-03-03T11:34:57;101769.03;;;4.72;100.00
13422;BME280;6782;55.904;13.396;2023-03-03T11:37:56;101764.09;;;4.90;100.00
13422;BME280;6782;55.904;13.396;2023-03-03T11:40:48;101747.66;;;4.95;100.00
13422;BME280;6782;55.904;13.396;2023-03-03T11:43:41;101746.53;;;4.83;100.00
13422;BME280;6782;55.904;13.396;2023-03-03T11:46:37;101742.25;;;4.86;100.00
13422;BME280;6782;55.904;13.396;2023-03-03T11:49:32;101744.84;;;4.85;100.00
13422;BME280;6782;55.904;13.396;2023-03-03T11:52:29;101733.75;;;5.01;100.00
13422;BME280;6782;55.904;13.396;2023-03-03T11:55:24;101731.06;;;4.95;100.00
13422;BME280;6782;55.904;13.396;2023-03-03T11:58:16;101721.88;;;4.64;100.00
13422;BME280;6782;55.904;13.396;2023-03-03T12:01:13;101721.06;;;4.68;100.00
13422;BME280;6782;55.904;13.396;2023-03-03T12:04:06;101697.03;;;4.36;100.00
13422;BME280;6782;55.904;13.396;2023-03-03T12:07:08;101703.47;;;4.57;100.00
13422;BME280;6782;55.904;13.396;2023-03-03T12:10:06;101683.47;;;4.59;100.00
13422;BME280;6782;55.904;13.396;2023-03-03T12:13:02;101670.28;;;4.53;100.00
13422;BME280;6782;55.904;13.396;2023-03-03T12:15:53;101653.72;;;4.51;100.00
13422;BME280;6782;55.904;13.396;2023-03-03T12:18:59;101651.97;;;4.50;100.00
13422;BME280;6782;55.904;13.396;2023-03-03T12:22:07;101641.44;;;4.43;100.00
13422;BME280;6782;55.904;13.396;2023-03-03T12:25:25;101636.50;;;4.62;100.00
13422;BME280;6782;55.904;13.396;2023-03-03T12:28:19;101630.53;;;4.72;100.00
13422;BME280;6782;55.904;13.396;2023-03-03T12:31:28;101625.44;;;4.81;100.00
13422;BME280;6782;55.904;13.396;2023-03-03T12:34:24;101608.56;;;4.58;100.00
13422;BME280;6782;55.904;13.396;2023-03-03T12:37:22;101603.47;;;4.67;100.00
13422;BME280;6782;55.904;13.396;2023-03-03T12:40:16;101593.81;;;4.63;100.00
13422;BME280;6782;55.904;13.396;2023-03-03T12:43:18;101591.41;;;4.78;100.00
13422;BME280;6782;55.904;13.396;2023-03-03T12:46:15;101572.75;;;4.51;100.00
13422;BME280;6782;55.904;13.396;2023-03-03T12:49:05;101566.81;;;4.61;100.00
13422;BME280;6782;55.904;13.396;2023-03-03T12:52:04;101562.72;;;4.81;100.00
13422;BME280;6782;55.904;13.396;2023-03-03T12:55:08;101569.16;;;5.05;100.00
13422;BME280;6782;55.904;13.396;2023-03-03T12:58:00;101549.94;;;5.02;100.00
13422;BME280;6782;55.904;13.396;2023-03-03T13:00:54;101535.97;;;5.00;100.00
13422;BME280;6782;55.904;13.396;2023-03-03T13:03:51;101528.03;;;4.92;100.00
13422;BME280;6782;55.904;13.396;2023-03-03T13:06:43;101520.25;;;4.97;100.00
13422;BME280;6782;55.904;13.396;2023-03-03T13:09:41;101510.81;;;5.11;100.00
13422;BME280;6782;55.904;13.396;2023-03-03T13:12:39;101503.81;;;5.07;100.00
13422;BME280;6782;55.904;13.396;2023-03-03T13:15:34;101501.19;;;5.07;100.00
13422;BME280;6782;55.904;13.396;2023-03-03T13:18:30;101486.31;;;5.01;100.00
13422;BME280;6782;55.904;13.396;2023-03-03T13:21:23;101473.19;;;4.97;100.00
13422;BME280;6782;55.904;13.396;2023-03-03T13:24:17;101472.53;;;5.16;100.00
13422;BME280;6782;55.904;13.396;2023-03-03T13:27:10;101466.50;;;5.23;100.00
13422;BME280;6782;55.904;13.396;2023-03-03T13:30:01;101446.31;;;5.12;100.00
13422;BME280;6782;55.904;13.396;2023-03-03T13:32:55;101443.84;;;5.24;100.00
13422;BME280;6782;55.904;13.396;2023-03-03T13:35:44;101434.25;;;5.24;100.00
13422;BME280;6782;55.904;13.396;2023-03-03T13:38:35;101411.41;;;5.05;100.00
13422;BME280;6782;55.904;13.396;2023-03-03T13:41:28;101407.09;;;5.10;100.00
13422;BME280;6782;55.904;13.396;2023-03-03T13:44:22;101394.66;;;4.85;100.00
13422;BME280;6782;55.904;13.396;2023-03-03T13:47:14;101387.75;;;4.90;100.00
13422;BME280;6782;55.904;13.396;2023-03-03T13:50:17;101387.00;;;5.06;100.00
13422;BME280;6782;55.904;13.396;2023-03-03T13:53:27;101383.59;;;5.12;100.00
13422;BME280;6782;55.904;13.396;2023-03-03T13:56:38;101361.66;;;4.96;100.00
13422;BME280;6782;55.904;13.396;2023-03-03T13:59:36;101323.63;;;4.36;100.00
13422;BME280;6782;55.904;13.396;2023-03-03T14:02:45;101319.44;;;4.54;100.00
13422;BME280;6782;55.904;13.396;2023-03-03T14:05:36;101318.69;;;4.65;100.00